createdAt,value
2019-05-12T00:00:31.568Z,12.79
2019-05-12T00:03:02.935Z,12.58
2019-05-12T00:05:34.335Z,12.35
2019-05-12T00:08:08.167Z,12.37
2019-05-12T00:10:38.998Z,12.32
2019-05-12T00:13:10.250Z,12.30
2019-05-12T00:15:41.751Z,12.66
2019-05-12T00:18:13.134Z,12.66
2019-05-12T00:20:44.582Z,12.54
2019-05-12T00:23:24.928Z,12.52
2019-05-12T00:25:49.175Z,12.50
2019-05-12T00:28:21.695Z,12.67
2019-05-12T00:30:53.143Z,12.58
2019-05-12T00:33:24.648Z,12.67
2019-05-12T00:35:56.147Z,12.80
2019-05-12T00:38:29.283Z,12.78
2019-05-12T00:41:00.743Z,12.83
2019-05-12T00:43:32.115Z,12.57
2019-05-12T00:46:03.495Z,12.45
2019-05-12T00:48:34.993Z,12.47
2019-05-12T00:51:07.775Z,12.49
2019-05-12T00:53:43.186Z,12.57
2019-05-12T00:56:12.403Z,12.49
2019-05-12T00:58:43.665Z,12.68
2019-05-12T01:01:15.050Z,12.76
2019-05-12T01:03:48.326Z,12.42
2019-05-12T01:06:19.599Z,12.20
2019-05-12T01:08:50.849Z,12.25
2019-05-12T01:11:23.329Z,12.26
2019-05-12T01:13:54.804Z,12.42
2019-05-12T01:16:26.082Z,12.46
2019-05-12T01:18:58.622Z,12.34
2019-05-12T01:21:29.929Z,12.40
2019-05-12T01:24:03.485Z,12.26
2019-05-12T01:26:34.294Z,12.07
2019-05-12T01:29:05.747Z,12.27
2019-05-12T01:31:38.730Z,12.37
2019-05-12T01:34:10.014Z,12.33
2019-05-12T01:36:41.586Z,12.33
2019-05-12T01:39:12.906Z,12.30
2019-05-12T01:41:44.331Z,12.32
2019-05-12T01:44:15.673Z,12.14
2019-05-12T01:46:48.402Z,11.91
2019-05-12T01:49:20.015Z,11.93
2019-05-12T01:51:51.473Z,11.82
2019-05-12T01:54:22.756Z,11.71
2019-05-12T01:56:54.026Z,11.70
2019-05-12T01:59:25.498Z,11.70
2019-05-12T02:01:58.152Z,11.75
2019-05-12T02:04:31.430Z,11.79
2019-05-12T02:07:04.404Z,11.70
2019-05-12T02:09:38.691Z,11.83
2019-05-12T02:12:10.392Z,11.84
2019-05-12T02:14:41.765Z,11.84
2019-05-12T02:17:13.147Z,11.83
2019-05-12T02:19:44.645Z,11.83
2019-05-12T02:22:15.971Z,11.78
2019-05-12T02:24:47.928Z,11.85
2019-05-12T02:27:19.463Z,11.80
2019-05-12T02:29:51.063Z,11.79
2019-05-12T02:32:25.123Z,11.71
2019-05-12T02:34:55.423Z,11.57
2019-05-12T02:37:26.794Z,11.65
2019-05-12T02:39:58.301Z,11.75
2019-05-12T02:42:29.914Z,11.69
2019-05-12T02:45:01.271Z,11.57
2019-05-12T02:47:34.733Z,11.81
2019-05-12T02:50:09.207Z,11.93
2019-05-12T02:52:44.118Z,11.79
2019-05-12T02:55:15.046Z,11.78
2019-05-12T02:57:48.527Z,11.62
2019-05-12T03:00:19.957Z,11.65
2019-05-12T03:02:54.764Z,11.64
2019-05-12T03:05:27.560Z,11.68
2019-05-12T03:07:59.820Z,11.71
2019-05-12T03:10:31.293Z,11.68
2019-05-12T03:13:04.258Z,11.88
2019-05-12T03:15:37.430Z,11.93
2019-05-12T03:18:09.294Z,12.12
2019-05-12T03:20:40.873Z,12.04
2019-05-12T03:23:18.359Z,12.03
2019-05-12T03:25:45.833Z,12.05
2019-05-12T03:28:17.333Z,12.16
2019-05-12T03:30:49.542Z,12.64
2019-05-12T03:33:21.042Z,12.58
2019-05-12T03:35:59.855Z,12.85
2019-05-12T03:38:27.825Z,13.79
2019-05-12T03:40:58.663Z,13.78
2019-05-12T03:43:31.075Z,13.61
2019-05-12T03:46:05.210Z,13.25
2019-05-12T03:48:35.518Z,13.28
2019-05-12T03:51:06.833Z,13.10
2019-05-12T03:53:38.185Z,13.05
2019-05-12T03:56:09.645Z,12.86
2019-05-12T03:58:41.036Z,12.87
2019-05-12T04:01:15.046Z,12.95
2019-05-12T04:03:45.538Z,13.07
2019-05-12T04:06:16.849Z,13.19
2019-05-12T04:08:48.342Z,13.36
2019-05-12T04:11:19.776Z,13.71
2019-05-12T04:13:51.002Z,14.18
2019-05-12T04:16:24.696Z,14.07
2019-05-12T04:18:56.347Z,14.10
2019-05-12T04:21:27.740Z,14.49
2019-05-12T04:23:59.197Z,14.36
2019-05-12T04:26:30.480Z,14.35
2019-05-12T04:29:04.820Z,13.95
2019-05-12T04:31:36.833Z,13.96
2019-05-12T04:34:13.676Z,14.78
2019-05-12T04:36:44.934Z,14.56
2019-05-12T04:39:15.504Z,14.42
2019-05-12T04:41:46.953Z,14.21
2019-05-12T04:44:18.481Z,14.28
2019-05-12T04:46:49.784Z,14.35
2019-05-12T04:49:24.959Z,14.48
2019-05-12T04:51:55.295Z,14.98
2019-05-12T04:54:26.665Z,14.84
2019-05-12T04:56:57.989Z,15.32
2019-05-12T04:59:29.224Z,15.03
2019-05-12T05:02:00.576Z,15.45
2019-05-12T05:04:34.553Z,15.14
2019-05-12T05:07:05.010Z,15.04
2019-05-12T05:09:36.355Z,15.08
2019-05-12T05:12:07.574Z,15.52
2019-05-12T05:14:38.926Z,15.53
2019-05-12T05:17:10.318Z,15.30
2019-05-12T05:19:43.999Z,15.70
2019-05-12T05:22:14.757Z,15.69
2019-05-12T05:24:46.029Z,16.09
2019-05-12T05:27:17.500Z,15.98
2019-05-12T05:29:49.013Z,15.90
2019-05-12T05:32:20.483Z,16.17
2019-05-12T05:34:55.767Z,16.19
2019-05-12T05:37:24.764Z,16.65
2019-05-12T05:39:56.072Z,16.41
2019-05-12T05:42:32.675Z,15.75
2019-05-12T05:45:00.620Z,15.36
2019-05-12T05:47:33.626Z,15.81
2019-05-12T05:50:07.176Z,15.72
2019-05-12T05:52:38.878Z,15.81
2019-05-12T05:55:14.493Z,15.83
2019-05-12T05:57:44.388Z,16.05
2019-05-12T06:00:21.220Z,16.02
2019-05-12T06:02:49.099Z,16.48
2019-05-12T06:05:26.298Z,17.25
2019-05-12T06:07:53.653Z,16.93
2019-05-12T06:10:34.726Z,16.90
2019-05-12T06:12:58.130Z,17.01
2019-05-12T06:15:37.487Z,16.89
2019-05-12T06:18:03.987Z,17.60
2019-05-12T06:20:38.065Z,17.60
2019-05-12T06:23:08.527Z,17.39
2019-05-12T06:25:50.588Z,17.99
2019-05-12T06:28:14.506Z,18.13
2019-05-12T06:30:49.505Z,18.42
2019-05-12T06:33:24.761Z,18.81
2019-05-12T06:35:54.220Z,18.72
2019-05-12T06:38:25.341Z,18.22
2019-05-12T06:40:56.637Z,18.24
2019-05-12T06:43:29.177Z,18.49
2019-05-12T06:46:03.513Z,18.55
2019-05-12T06:48:34.296Z,18.80
2019-05-12T06:51:09.286Z,18.96
2019-05-12T06:53:38.832Z,19.01
2019-05-12T06:56:17.578Z,19.13
2019-05-12T06:58:44.226Z,19.36
2019-05-12T07:01:19.342Z,19.40
2019-05-12T07:03:48.701Z,19.17
2019-05-12T07:06:20.131Z,19.02
2019-05-12T07:09:06.005Z,19.48
2019-05-12T07:11:42.561Z,19.05
2019-05-12T07:14:12.853Z,18.96
2019-05-12T07:16:38.128Z,19.08
2019-05-12T07:19:20.611Z,19.10
2019-05-12T07:21:43.948Z,19.11
2019-05-12T07:24:15.342Z,19.27
2019-05-12T07:26:48.143Z,19.10
2019-05-12T07:29:19.922Z,19.01
2019-05-12T07:31:53.697Z,19.04
2019-05-12T07:34:24.143Z,18.74
2019-05-12T07:36:59.850Z,19.09
2019-05-12T07:39:36.971Z,19.24
2019-05-12T07:42:06.336Z,19.02
2019-05-12T07:44:41.157Z,19.28
2019-05-12T07:47:13.759Z,19.27
2019-05-12T07:49:45.308Z,19.24
2019-05-12T07:52:16.744Z,18.98
2019-05-12T07:54:48.048Z,19.33
2019-05-12T07:57:19.354Z,19.76
2019-05-12T07:59:51.165Z,19.57
2019-05-12T08:02:31.435Z,19.71
2019-05-12T08:04:55.553Z,19.36
2019-05-12T08:07:29.897Z,19.17
2019-05-12T08:09:59.928Z,19.38
2019-05-12T08:12:31.244Z,19.41
2019-05-12T08:15:05.409Z,19.43
2019-05-12T08:17:35.682Z,19.68
2019-05-12T08:20:07.523Z,19.63
2019-05-12T08:22:40.864Z,19.68
2019-05-12T08:25:13.515Z,19.83
2019-05-12T08:27:49.036Z,19.60
2019-05-12T08:30:19.039Z,19.97
2019-05-12T08:32:54.698Z,20.26
2019-05-12T08:35:29.350Z,19.85
2019-05-12T08:37:56.575Z,19.90
2019-05-12T08:40:27.925Z,19.80
2019-05-12T08:43:04.759Z,19.68
2019-05-12T08:45:37.053Z,19.83
2019-05-12T08:48:10.224Z,19.77
2019-05-12T08:50:42.598Z,19.69
2019-05-12T08:53:20.286Z,19.93
2019-05-12T08:55:45.626Z,19.81
2019-05-12T08:58:30.469Z,19.99
2019-05-12T09:00:50.635Z,19.90
2019-05-12T09:03:27.185Z,20.00
2019-05-12T09:05:54.826Z,19.85
2019-05-12T09:08:26.267Z,20.14
2019-05-12T09:10:57.710Z,20.20
2019-05-12T09:13:28.928Z,20.50
2019-05-12T09:16:00.220Z,20.02
2019-05-12T09:18:35.127Z,20.12
2019-05-12T09:21:05.073Z,20.25
2019-05-12T09:23:41.058Z,19.82
2019-05-12T09:26:09.392Z,19.88
2019-05-12T09:28:47.377Z,20.06
2019-05-12T09:31:14.202Z,20.13
2019-05-12T09:33:45.795Z,20.08
2019-05-12T09:36:19.696Z,20.61
2019-05-12T09:38:55.923Z,20.19
2019-05-12T09:41:24.039Z,20.00
2019-05-12T09:43:55.387Z,19.97
2019-05-12T09:46:28.379Z,20.09
2019-05-12T09:48:59.545Z,20.24
2019-05-12T09:51:32.931Z,20.19
2019-05-12T09:54:05.225Z,20.24
2019-05-12T09:56:36.530Z,20.12
2019-05-12T09:59:17.893Z,20.00
2019-05-12T10:01:43.870Z,20.33
2019-05-12T10:04:16.310Z,20.18
2019-05-12T10:06:46.236Z,20.41
2019-05-12T10:09:19.798Z,20.48
2019-05-12T10:11:51.865Z,20.59
2019-05-12T10:14:23.662Z,20.40
2019-05-12T10:16:54.953Z,20.46
2019-05-12T10:19:26.169Z,20.77
2019-05-12T10:21:59.461Z,20.56
2019-05-12T10:24:32.744Z,20.87
2019-05-12T10:27:03.794Z,20.69
2019-05-12T10:29:35.145Z,20.77
2019-05-12T10:32:06.458Z,21.12
2019-05-12T10:34:40.231Z,21.24
2019-05-12T10:37:10.352Z,20.89
2019-05-12T10:39:41.579Z,20.71
2019-05-12T10:42:13.743Z,20.18
2019-05-12T10:44:45.199Z,20.08
2019-05-12T10:47:16.483Z,20.27
2019-05-12T10:49:47.970Z,19.97
2019-05-12T10:52:19.295Z,19.88
2019-05-12T10:54:50.797Z,19.78
2019-05-12T10:57:22.304Z,19.64
2019-05-12T10:59:53.790Z,19.81
2019-05-12T11:02:26.442Z,19.86
2019-05-12T11:04:58.325Z,20.38
2019-05-12T11:07:30.033Z,20.48
2019-05-12T11:10:05.205Z,20.67
2019-05-12T11:12:33.949Z,20.69
2019-05-12T11:15:08.494Z,20.77
2019-05-12T11:17:49.827Z,21.08
2019-05-12T11:20:21.211Z,21.31
2019-05-12T11:22:54.254Z,21.49
2019-05-12T11:25:25.526Z,21.07
2019-05-12T11:27:56.817Z,20.82
2019-05-12T11:30:28.163Z,20.90
2019-05-12T11:32:59.916Z,20.80
2019-05-12T11:35:31.307Z,20.71
2019-05-12T11:38:04.493Z,20.90
2019-05-12T11:40:35.083Z,21.03
2019-05-12T11:43:06.206Z,21.12
2019-05-12T11:45:38.290Z,21.25
2019-05-12T11:48:10.452Z,21.18
2019-05-12T11:50:47.803Z,21.27
2019-05-12T11:53:14.909Z,21.45
2019-05-12T11:55:46.463Z,21.23
2019-05-12T11:58:18.008Z,21.32
2019-05-12T12:00:53.212Z,21.47
2019-05-12T12:03:24.252Z,21.70
2019-05-12T12:05:55.697Z,21.91
2019-05-12T12:08:35.215Z,21.91
2019-05-12T12:11:00.228Z,21.64
2019-05-12T12:13:33.566Z,21.88
2019-05-12T12:16:07.088Z,21.84
2019-05-12T12:18:38.167Z,21.93
2019-05-12T12:21:10.044Z,21.87
2019-05-12T12:23:47.139Z,22.05
2019-05-12T12:26:30.047Z,22.43
2019-05-12T12:28:58.816Z,22.57
2019-05-12T12:31:35.548Z,22.37
2019-05-12T12:34:05.249Z,22.28
2019-05-12T12:36:36.701Z,22.38
2019-05-12T12:39:08.159Z,22.20
2019-05-12T12:41:45.757Z,22.04
2019-05-12T12:44:13.617Z,22.36
2019-05-12T12:46:45.407Z,22.36
2019-05-12T12:49:16.847Z,22.26
2019-05-12T12:51:48.248Z,22.11
2019-05-12T12:54:25.543Z,22.00
2019-05-12T12:57:00.099Z,21.86
2019-05-12T12:59:33.277Z,21.69
2019-05-12T13:02:05.774Z,21.62
2019-05-12T13:04:39.485Z,21.70
2019-05-12T13:07:09.152Z,21.42
2019-05-12T13:09:40.469Z,21.31
2019-05-12T13:12:16.006Z,21.03
2019-05-12T13:14:45.530Z,20.96
2019-05-12T13:17:17.143Z,20.73
2019-05-12T13:19:48.775Z,20.54
2019-05-12T13:22:21.607Z,20.45
2019-05-12T13:24:53.288Z,20.29
2019-05-12T13:27:29.123Z,20.45
2019-05-12T13:30:01.596Z,20.53
2019-05-12T13:32:33.145Z,20.34
2019-05-12T13:35:09.666Z,20.23
2019-05-12T13:37:39.164Z,19.96
2019-05-12T13:40:10.665Z,19.97
2019-05-12T13:42:43.768Z,20.00
2019-05-12T13:45:16.332Z,19.94
2019-05-12T13:47:47.602Z,19.74
2019-05-12T13:50:26.215Z,19.89
2019-05-12T13:52:54.189Z,19.65
2019-05-12T13:55:25.306Z,19.60
2019-05-12T13:57:57.879Z,19.60
2019-05-12T14:00:29.358Z,19.18
2019-05-12T14:03:07.637Z,19.15
2019-05-12T14:05:33.726Z,19.53
2019-05-12T14:08:05.095Z,19.60
2019-05-12T14:10:37.622Z,19.96
2019-05-12T14:13:09.651Z,19.61
2019-05-12T14:15:41.094Z,19.61
2019-05-12T14:18:16.377Z,19.37
2019-05-12T14:20:45.282Z,19.67
2019-05-12T14:23:17.543Z,19.57
2019-05-12T14:25:48.810Z,19.49
2019-05-12T14:28:20.140Z,19.47
2019-05-12T14:30:53.890Z,19.45
2019-05-12T14:33:24.932Z,19.48
2019-05-12T14:35:56.262Z,19.59
2019-05-12T14:38:29.723Z,19.64
2019-05-12T14:41:01.275Z,19.62
2019-05-12T14:43:34.165Z,19.38
2019-05-12T14:46:10.146Z,19.35
2019-05-12T14:48:40.176Z,19.37
2019-05-12T14:51:14.108Z,19.24
2019-05-12T14:53:48.016Z,19.30
2019-05-12T14:56:19.048Z,19.21
2019-05-12T14:58:55.560Z,19.07
2019-05-12T15:01:37.484Z,19.08
2019-05-12T15:03:58.054Z,19.14
2019-05-12T15:06:29.660Z,19.06
2019-05-12T15:09:03.267Z,19.09
2019-05-12T15:11:34.338Z,19.18
2019-05-12T15:14:05.528Z,19.08
2019-05-12T15:16:40.575Z,18.91
2019-05-12T15:19:09.945Z,18.96
2019-05-12T15:21:43.541Z,18.88
2019-05-12T15:24:17.606Z,18.71
2019-05-12T15:26:50.614Z,18.63
2019-05-12T15:29:23.285Z,18.44
2019-05-12T15:31:56.838Z,18.39
2019-05-12T15:34:27.034Z,18.21
2019-05-12T15:37:00.338Z,18.17
2019-05-12T15:39:33.586Z,18.10
2019-05-12T15:42:04.918Z,18.21
2019-05-12T15:44:43.224Z,18.12
2019-05-12T15:47:13.981Z,17.94
2019-05-12T15:49:46.297Z,17.99
2019-05-12T15:52:24.519Z,17.95
2019-05-12T15:55:00.272Z,18.06
2019-05-12T15:57:33.478Z,18.13
2019-05-12T16:00:19.767Z,18.16
2019-05-12T16:02:53.306Z,18.11
2019-05-12T16:05:26.353Z,18.15
2019-05-12T16:07:57.592Z,18.02
2019-05-12T16:10:29.073Z,18.03
2019-05-12T16:13:00.555Z,18.18
2019-05-12T16:15:36.550Z,18.10
2019-05-12T16:18:09.809Z,18.19
2019-05-12T16:20:41.031Z,18.17
2019-05-12T16:23:15.497Z,18.06
2019-05-12T16:25:45.522Z,17.87
2019-05-12T16:28:22.916Z,17.80
2019-05-12T16:30:50.058Z,17.70
2019-05-12T16:33:22.109Z,17.67
2019-05-12T16:35:54.608Z,17.70
2019-05-12T16:38:26.282Z,17.59
2019-05-12T16:40:57.735Z,17.62
2019-05-12T16:43:34.425Z,17.59
2019-05-12T16:46:04.334Z,17.53
2019-05-12T16:48:36.382Z,17.64
2019-05-12T16:51:07.929Z,17.69
2019-05-12T16:53:39.158Z,17.70
2019-05-12T16:56:10.442Z,17.54
2019-05-12T16:58:43.457Z,17.45
2019-05-12T17:01:19.575Z,17.43
2019-05-12T17:03:48.193Z,17.39
2019-05-12T17:06:20.550Z,17.34
2019-05-12T17:08:54.264Z,17.34
2019-05-12T17:11:30.718Z,17.38
2019-05-12T17:14:04.088Z,17.35
2019-05-12T17:16:41.555Z,17.34
2019-05-12T17:19:10.240Z,17.38
2019-05-12T17:21:38.936Z,17.32
2019-05-12T17:24:10.419Z,17.38
2019-05-12T17:26:43.859Z,17.36
2019-05-12T17:29:14.983Z,17.33
2019-05-12T17:31:46.310Z,17.33
2019-05-12T17:34:17.646Z,17.43
2019-05-12T17:36:50.090Z,17.39
2019-05-12T17:39:43.837Z,17.28
2019-05-12T17:42:21.487Z,17.28
2019-05-12T17:44:48.677Z,17.25
2019-05-12T17:47:24.166Z,17.18
2019-05-12T17:49:53.925Z,17.15
2019-05-12T17:52:25.367Z,17.16
2019-05-12T17:55:04.579Z,17.21
2019-05-12T17:57:29.965Z,17.18
2019-05-12T18:00:06.167Z,17.07
2019-05-12T18:02:34.381Z,16.94
2019-05-12T18:05:12.271Z,17.08
2019-05-12T18:07:40.549Z,17.08
2019-05-12T18:10:16.699Z,16.87
2019-05-12T18:12:48.080Z,16.78
2019-05-12T18:15:23.394Z,16.72
2019-05-12T18:17:53.275Z,16.66
2019-05-12T18:20:44.519Z,16.60
2019-05-12T18:23:19.879Z,16.55
2019-05-12T18:25:49.195Z,16.48
2019-05-12T18:28:21.677Z,16.50
2019-05-12T18:30:53.894Z,16.41
2019-05-12T18:33:33.796Z,16.42
2019-05-12T18:36:04.746Z,16.49
2019-05-12T18:38:39.232Z,16.29
2019-05-12T18:41:13.879Z,16.41
2019-05-12T18:43:46.559Z,16.46
2019-05-12T18:46:18.085Z,16.23
2019-05-12T18:48:54.157Z,16.17
2019-05-12T18:51:23.786Z,16.13
2019-05-12T18:53:57.848Z,16.06
2019-05-12T18:56:29.858Z,16.13
2019-05-12T18:59:11.385Z,15.98
2019-05-12T19:01:37.720Z,15.93
2019-05-12T19:04:09.172Z,16.00
2019-05-12T19:06:40.546Z,15.98
2019-05-12T19:09:13.701Z,16.07
2019-05-12T19:11:46.715Z,16.12
2019-05-12T19:14:18.391Z,16.09
2019-05-12T19:16:49.820Z,15.97
2019-05-12T19:19:23.611Z,16.04
2019-05-12T19:22:04.772Z,16.09
2019-05-12T19:24:36.027Z,16.15
2019-05-12T19:27:04.554Z,16.05
2019-05-12T19:29:45.683Z,15.99
2019-05-12T19:32:13.738Z,15.93
2019-05-12T19:34:46.811Z,15.97
2019-05-12T19:37:19.461Z,16.04
2019-05-12T19:43:08.234Z,16.04
2019-05-12T19:45:39.697Z,16.07
2019-05-12T19:48:26.561Z,16.06
2019-05-12T19:50:57.003Z,16.15
2019-05-12T19:53:26.754Z,16.10
2019-05-12T19:56:03.866Z,15.97
2019-05-12T19:58:45.825Z,16.01
2019-05-12T20:01:26.106Z,16.05
2019-05-12T20:03:56.171Z,16.07
2019-05-12T20:06:28.553Z,16.03
2019-05-12T20:09:06.706Z,16.10
2019-05-12T20:11:35.190Z,16.18
2019-05-12T20:14:09.998Z,16.11
2019-05-12T20:16:40.756Z,16.01
2019-05-12T20:19:13.585Z,16.02
2019-05-12T20:21:45.133Z,16.13
2019-05-12T20:24:17.653Z,16.13
2019-05-12T20:26:50.198Z,16.15
2019-05-12T20:29:24.576Z,16.12
2019-05-12T20:31:57.265Z,16.13
2019-05-12T20:34:28.535Z,16.17
2019-05-12T20:37:07.620Z,16.16
2019-05-12T20:39:33.151Z,16.14
2019-05-12T20:42:05.289Z,16.18
2019-05-12T20:44:36.845Z,16.16
2019-05-12T20:47:08.211Z,16.15
2019-05-12T20:49:42.961Z,16.06
2019-05-12T20:52:14.419Z,16.02
2019-05-12T20:54:49.218Z,15.98
2019-05-12T20:57:18.703Z,16.03
2019-05-12T20:59:50.130Z,16.10
2019-05-12T21:02:23.377Z,16.08
2019-05-12T21:05:00.916Z,16.09
2019-05-12T21:07:28.122Z,15.84
2019-05-12T21:09:59.557Z,15.96
2019-05-12T21:12:33.293Z,15.96
2019-05-12T21:15:16.295Z,15.94
2019-05-12T21:17:43.446Z,15.94
2019-05-12T21:20:16.596Z,15.97
2019-05-12T21:22:45.907Z,16.03
2019-05-12T21:25:17.397Z,16.03
2019-05-12T21:27:55.053Z,16.13
2019-05-12T21:30:24.495Z,15.98
2019-05-12T21:32:59.694Z,15.93
2019-05-12T21:35:33.020Z,16.09
2019-05-12T21:38:01.020Z,15.99
2019-05-12T21:40:36.104Z,15.97
2019-05-12T21:43:07.516Z,16.11
2019-05-12T21:45:38.995Z,16.12
2019-05-12T21:48:15.001Z,16.07
2019-05-12T21:50:44.315Z,15.98
2019-05-12T21:53:20.055Z,15.99
2019-05-12T21:55:48.959Z,15.88
2019-05-12T21:58:20.237Z,15.89
2019-05-12T22:01:03.911Z,15.86
2019-05-12T22:03:30.496Z,15.85
2019-05-12T22:06:06.450Z,15.77
2019-05-12T22:08:35.250Z,15.92
2019-05-12T22:11:11.477Z,15.80
2019-05-12T22:13:46.775Z,15.71
2019-05-12T22:16:14.155Z,15.58
2019-05-12T22:18:47.794Z,15.50
2019-05-12T22:21:18.752Z,15.58
2019-05-12T22:23:51.623Z,15.53
2019-05-12T22:26:23.438Z,15.45
2019-05-12T22:28:54.755Z,15.45
2019-05-12T22:31:26.196Z,15.40
2019-05-12T22:33:57.517Z,15.36
2019-05-12T22:36:30.178Z,15.36
2019-05-12T22:39:03.100Z,15.36
2019-05-12T22:41:36.841Z,15.29
2019-05-12T22:44:07.755Z,15.22
2019-05-12T22:46:39.033Z,15.21
2019-05-12T22:49:15.918Z,15.25
2019-05-12T22:51:43.578Z,15.24
2019-05-12T22:54:16.564Z,15.30
2019-05-12T22:56:49.666Z,15.17
2019-05-12T22:59:21.309Z,15.16
2019-05-12T23:01:54.281Z,15.19
2019-05-12T23:04:34.555Z,15.26
2019-05-12T23:06:58.932Z,15.20
2019-05-12T23:09:30.400Z,15.20
2019-05-12T23:12:04.017Z,15.11
2019-05-12T23:14:34.720Z,15.08
2019-05-12T23:17:07.477Z,15.00
2019-05-12T23:19:42.996Z,14.96
2019-05-12T23:22:14.263Z,15.08
2019-05-12T23:24:45.306Z,15.03
2019-05-12T23:27:18.734Z,15.03
2019-05-12T23:29:49.748Z,15.06
2019-05-12T23:32:21.102Z,14.98
2019-05-12T23:34:57.293Z,15.00
2019-05-12T23:37:30.126Z,14.94
2019-05-12T23:39:58.625Z,14.91
2019-05-12T23:42:30.074Z,15.01
2019-05-12T23:45:03.467Z,14.85
2019-05-12T23:47:34.472Z,14.87
2019-05-12T23:50:09.964Z,14.96
2019-05-12T23:52:43.761Z,14.88
2019-05-12T23:55:14.533Z,14.96
2019-05-12T23:57:45.846Z,14.98
